Time;durP1;ratioP1;P1;durP2;ratioP2;P2;SDS_P1;SDS_P2;PMS_P1;PMS_P2;Temp;Humidity;BMP_temperature;BMP_pressure;BME280_temperature;BME280_humidity;BME280_pressure;Samples;Min_cycle;Max_cycle;Signal;HPM_P1;HPM_P2
2022/02/19 00:00:26;;;;;;;10.40;5.05;;;;;;;2.53;68.01;96820.69;1757720;81;21083;-63
2022/02/19 00:02:53;;;;;;;8.95;4.92;;;;;;;2.53;68.19;96829.14;1757975;81;21348;-61
2022/02/19 00:05:20;;;;;;;9.88;4.97;;;;;;;2.52;68.67;96815.13;1758060;81;20962;-64
2022/02/19 00:07:47;;;;;;;8.98;4.95;;;;;;;2.51;69.07;96806.95;1757788;81;20958;-65
2022/02/19 00:10:14;;;;;;;8.38;4.75;;;;;;;2.48;69.61;96802.19;1757742;81;20880;-64
2022/02/19 00:12:41;;;;;;;11.50;6.72;;;;;;;2.44;70.11;96805.11;1757831;81;21107;-66
2022/02/19 00:15:09;;;;;;;12.68;5.72;;;;;;;2.42;70.67;96801.95;1757745;81;21502;-65
2022/02/19 00:17:36;;;;;;;12.73;5.17;;;;;;;2.39;71.00;96797.71;1757716;81;21354;-61
2022/02/19 00:20:07;;;;;;;10.10;5.00;;;;;;;2.37;71.41;96794.02;1758072;81;21460;-61
2022/02/19 00:22:38;;;;;;;9.93;4.50;;;;;;;2.36;71.93;96796.39;1758235;81;20888;-65
2022/02/19 00:25:06;;;;;;;11.45;4.90;;;;;;;2.35;72.55;96788.74;1757792;81;21111;-65
2022/02/19 00:27:33;;;;;;;11.80;5.58;;;;;;;2.33;73.05;96789.54;1757737;81;20887;-63
2022/02/19 00:30:00;;;;;;;10.80;4.83;;;;;;;2.32;74.13;96783.98;1757820;81;21014;-65
2022/02/19 00:32:29;;;;;;;11.10;5.50;;;;;;;2.31;74.57;96791.11;1758251;81;21499;-63
2022/02/19 00:34:57;;;;;;;14.83;5.60;;;;;;;2.30;75.38;96788.22;1760433;81;20923;-65
2022/02/19 00:37:24;;;;;;;11.18;5.70;;;;;;;2.30;75.85;96777.66;1760109;81;21027;-62
2022/02/19 00:39:51;;;;;;;11.05;5.20;;;;;;;2.29;76.43;96774.73;1760163;81;21515;-60
2022/02/19 00:42:18;;;;;;;10.08;5.53;;;;;;;2.29;77.40;96761.52;1760213;81;20983;-66
2022/02/19 00:44:44;;;;;;;11.30;5.40;;;;;;;2.27;77.78;96758.36;1760170;81;20915;-64
2022/02/19 00:47:11;;;;;;;10.65;4.85;;;;;;;2.26;78.30;96758.08;1760455;81;21499;-64
2022/02/19 00:49:39;;;;;;;9.50;4.87;;;;;;;2.23;78.68;96742.78;1760477;81;21464;-60
2022/02/19 00:52:07;;;;;;;8.30;4.50;;;;;;;2.23;79.28;96722.17;1760154;81;20883;-61
2022/02/19 00:54:34;;;;;;;11.40;5.28;;;;;;;2.24;79.47;96735.66;1760388;81;21400;-66
2022/02/19 00:57:01;;;;;;;12.95;5.17;;;;;;;2.22;79.68;96724.02;1760109;81;20923;-65
2022/02/19 00:59:29;;;;;;;11.20;5.00;;;;;;;2.22;79.83;96723.22;1760139;81;20931;-66
2022/02/19 01:01:57;;;;;;;10.05;5.22;;;;;;;2.21;79.85;96731.70;1760224;81;21440;-63
2022/02/19 01:04:25;;;;;;;20.50;9.65;;;;;;;2.20;79.75;96711.61;1757826;81;20895;-65
2022/02/19 01:06:55;;;;;;;47.70;24.27;;;;;;;2.22;79.76;96702.88;1760290;81;20911;-66
2022/02/19 01:09:26;;;;;;;20.70;8.90;;;;;;;2.22;79.86;96694.95;1760251;81;20940;-65
2022/02/19 01:11:50;;;;;;;13.20;6.20;;;;;;;2.23;79.81;96705.80;1760287;81;20950;-62
2022/02/19 01:14:18;;;;;;;8.50;4.60;;;;;;;2.24;79.55;96676.98;1760655;81;21499;-65
2022/02/19 01:16:45;;;;;;;11.78;6.65;;;;;;;2.26;79.40;96672.22;1760388;81;20864;-65
2022/02/19 01:19:11;;;;;;;12.18;5.22;;;;;;;2.29;79.26;96683.58;1760459;81;20896;-61
2022/02/19 01:21:38;;;;;;;11.00;4.90;;;;;;;2.31;79.14;96678.81;1760224;81;20911;-60
2022/02/19 01:24:06;;;;;;;8.68;4.50;;;;;;;2.33;78.89;96678.00;1760266;81;20919;-61
2022/02/19 01:26:33;;;;;;;14.28;5.62;;;;;;;2.37;78.47;96665.06;1760626;81;21138;-64
2022/02/19 01:29:01;;;;;;;13.78;5.00;;;;;;;2.37;78.36;96672.47;1760382;81;20979;-62
2022/02/19 01:31:31;;;;;;;7.35;3.92;;;;;;;2.40;78.02;96667.94;1760250;81;21054;-63
2022/02/19 01:33:59;;;;;;;9.08;3.92;;;;;;;2.43;77.72;96670.05;1758222;81;20936;-59
2022/02/19 01:36:26;;;;;;;11.10;4.40;;;;;;;2.46;77.36;96665.56;1758228;81;20924;-65
2022/02/19 01:38:54;;;;;;;10.00;4.45;;;;;;;2.50;76.56;96670.55;1757901;81;21108;-60
2022/02/19 01:41:21;;;;;;;10.98;4.78;;;;;;;2.54;76.16;96668.95;1757874;81;21546;-60
2022/02/19 01:43:48;;;;;;;11.63;5.20;;;;;;;2.60;75.60;96672.37;1757792;81;20983;-60
2022/02/19 01:46:15;;;;;;;9.33;4.60;;;;;;;2.63;75.69;96663.37;1757895;81;20939;-66
2022/02/19 01:48:42;;;;;;;7.75;3.65;;;;;;;2.64;75.42;96654.37;1757951;81;20919;-66
2022/02/19 01:51:08;;;;;;;7.00;3.90;;;;;;;2.67;74.98;96654.36;1758027;81;21448;-65
2022/02/19 01:53:35;;;;;;;7.97;4.00;;;;;;;2.69;75.15;96642.45;1757766;81;20884;-65
2022/02/19 01:56:04;;;;;;;11.75;3.62;;;;;;;2.72;74.88;96636.62;1756831;80;21377;-65
2022/02/19 01:58:35;;;;;;;8.78;4.33;;;;;;;2.72;74.47;96639.27;1722551;83;20922;-65
2022/02/19 02:01:04;;;;;;;8.23;3.92;;;;;;;2.75;74.67;96633.45;1726351;83;20885;-63
2022/02/19 02:03:39;;;;;;;11.25;5.90;;;;;;;2.78;74.59;96633.96;1719617;83;21141;-65
2022/02/19 02:06:07;;;;;;;8.68;5.37;;;;;;;2.78;74.36;96615.69;1725854;83;20944;-64
2022/02/19 02:08:37;;;;;;;11.28;4.53;;;;;;;2.82;74.30;96612.51;1650827;83;20981;-60
2022/02/19 02:11:04;;;;;;;8.10;4.03;;;;;;;2.85;74.35;96614.06;1726198;81;21396;-62
2022/02/19 02:13:36;;;;;;;7.60;4.17;;;;;;;2.88;74.21;96610.08;1757294;80;20848;-61
2022/02/19 02:16:03;;;;;;;8.30;4.62;;;;;;;2.89;74.23;96603.73;1757740;81;21119;-64
2022/02/19 02:18:34;;;;;;;6.80;3.77;;;;;;;2.90;74.31;96613.27;1718440;81;20935;-66
2022/02/19 02:21:01;;;;;;;6.85;4.10;;;;;;;2.89;74.33;96604.53;1728589;83;20983;-62
2022/02/19 02:23:28;;;;;;;8.88;4.37;;;;;;;2.90;74.40;96604.77;1724498;83;21017;-64
2022/02/19 02:25:55;;;;;;;7.70;3.40;;;;;;;2.92;74.47;96598.67;1728466;83;20996;-66
2022/02/19 02:28:23;;;;;;;11.78;4.25;;;;;;;2.96;74.41;96600.25;1724635;82;21859;-66
2022/02/19 02:30:50;;;;;;;7.90;4.10;;;;;;;2.99;74.51;96587.81;1728513;83;20929;-64
2022/02/19 02:33:19;;;;;;;8.68;3.98;;;;;;;3.03;74.48;96581.69;1724218;82;21489;-67
2022/02/19 02:35:49;;;;;;;7.97;3.95;;;;;;;3.09;74.41;96583.74;1756863;81;21010;-62
2022/02/19 02:38:18;;;;;;;8.93;3.92;;;;;;;3.12;74.37;96581.35;1758086;81;21522;-61
2022/02/19 02:40:45;;;;;;;10.13;3.52;;;;;;;3.15;74.21;96580.02;1757789;81;21069;-64
2022/02/19 02:43:13;;;;;;;8.38;3.37;;;;;;;3.22;74.08;96588.42;1757705;81;20887;-62
2022/02/19 02:45:40;;;;;;;6.50;3.45;;;;;;;3.29;74.04;96594.19;1757857;81;20928;-62
2022/02/19 02:48:09;;;;;;;7.45;3.27;;;;;;;3.36;73.96;96585.39;1757859;81;21495;-64
2022/02/19 02:50:35;;;;;;;6.87;2.95;;;;;;;3.41;73.89;96589.33;1757907;81;20915;-66
2022/02/19 02:53:02;;;;;;;8.75;3.52;;;;;;;3.49;73.62;96565.44;1757774;81;21128;-67
2022/02/19 02:55:29;;;;;;;7.62;3.30;;;;;;;3.58;73.54;96555.27;1757804;81;20892;-61
2022/02/19 02:57:56;;;;;;;7.87;3.42;;;;;;;3.66;73.35;96557.84;1758059;81;21411;-62
2022/02/19 03:00:23;;;;;;;6.60;3.58;;;;;;;3.71;72.86;96562.56;1757748;81;20931;-66
2022/02/19 03:02:49;;;;;;;11.70;3.37;;;;;;;3.77;72.76;96568.61;1758163;81;20931;-65
2022/02/19 03:05:16;;;;;;;9.30;3.80;;;;;;;3.80;72.55;96566.70;1757854;81;21778;-67
2022/02/19 03:07:45;;;;;;;7.80;3.22;;;;;;;3.83;72.39;96566.14;1757699;81;20884;-61
2022/02/19 03:10:16;;;;;;;7.47;3.37;;;;;;;3.87;72.23;96557.35;1757852;81;20927;-66
2022/02/19 03:12:46;;;;;;;6.25;3.10;;;;;;;3.91;72.02;96552.30;1757797;80;21373;-62
2022/02/19 03:15:18;;;;;;;10.32;3.62;;;;;;;3.97;71.99;96544.00;1757811;81;20888;-62
2022/02/19 03:17:44;;;;;;;6.80;3.17;;;;;;;4.02;71.80;96543.15;1757784;81;21059;-64
2022/02/19 03:20:19;;;;;;;9.45;3.60;;;;;;;4.07;71.70;96513.95;1757681;81;20888;-64
2022/02/19 03:22:46;;;;;;;8.78;3.42;;;;;;;4.09;71.53;96509.95;1757230;81;20856;-63
2022/02/19 03:25:14;;;;;;;9.40;3.65;;;;;;;4.16;71.20;96534.77;1757710;81;20928;-60
2022/02/19 03:27:42;;;;;;;6.55;3.60;;;;;;;4.20;71.15;96524.38;1726453;81;21041;-61
2022/02/19 03:30:12;;;;;;;6.62;3.47;;;;;;;4.21;71.06;96518.80;1757469;81;21300;-63
2022/02/19 03:32:39;;;;;;;6.97;3.40;;;;;;;4.23;71.03;96519.83;1757903;81;21494;-61
2022/02/19 03:35:08;;;;;;;8.10;3.47;;;;;;;4.23;70.91;96530.44;1760164;81;20999;-61
2022/02/19 03:37:38;;;;;;;7.65;3.75;;;;;;;4.23;70.86;96528.58;1760232;81;20931;-61
2022/02/19 03:40:07;;;;;;;9.03;3.62;;;;;;;4.24;70.77;96527.48;1758839;80;21285;-61
2022/02/19 03:42:40;;;;;;;7.10;3.40;;;;;;;4.27;70.73;96526.13;1760249;81;21697;-66
2022/02/19 03:45:10;;;;;;;9.13;3.55;;;;;;;4.28;70.77;96514.47;1760354;81;20919;-65
2022/02/19 03:47:41;;;;;;;8.83;3.50;;;;;;;4.28;70.68;96530.38;1760170;81;21531;-60
2022/02/19 03:50:10;;;;;;;8.10;3.12;;;;;;;4.27;70.67;96531.44;1760251;81;20900;-65
2022/02/19 03:52:38;;;;;;;10.23;3.90;;;;;;;4.26;70.68;96524.58;1760278;81;20887;-61
2022/02/19 03:55:07;;;;;;;9.40;4.12;;;;;;;4.27;70.78;96523.48;1760525;81;21079;-63
2022/02/19 03:57:34;;;;;;;10.10;3.70;;;;;;;4.24;70.78;96525.40;1760086;81;20927;-60
2022/02/19 04:00:06;;;;;;;8.50;3.60;;;;;;;4.23;70.90;96555.08;1760338;81;20903;-66
2022/02/19 04:02:38;;;;;;;8.93;4.12;;;;;;;4.22;71.01;96547.39;1758610;81;20895;-63
2022/02/19 04:05:04;;;;;;;5.65;3.40;;;;;;;4.21;70.95;96553.79;1760020;80;20880;-65
2022/02/19 04:07:31;;;;;;;10.35;3.27;;;;;;;4.23;71.08;96554.29;1760160;81;21436;-63
2022/02/19 04:10:00;;;;;;;12.68;3.75;;;;;;;4.25;71.09;96557.44;1760267;81;20932;-63
2022/02/19 04:12:28;;;;;;;11.35;5.40;;;;;;;4.29;71.13;96558.44;1760147;81;21494;-65
2022/02/19 04:14:56;;;;;;;10.00;4.40;;;;;;;4.32;70.99;96557.88;1760324;81;21412;-66
2022/02/19 04:17:23;;;;;;;9.35;4.50;;;;;;;4.37;71.01;96553.84;1760145;81;20923;-65
2022/02/19 04:19:53;;;;;;;9.00;4.70;;;;;;;4.41;70.71;96566.77;1760336;81;21928;-60
2022/02/19 04:22:21;;;;;;;9.88;4.80;;;;;;;4.45;70.66;96571.78;1760252;81;20935;-61
2022/02/19 04:24:49;;;;;;;9.55;4.22;;;;;;;4.45;70.62;96584.47;1760271;81;21059;-61
2022/02/19 04:27:19;;;;;;;10.82;4.42;;;;;;;4.46;70.62;96590.58;1759850;81;21010;-66
2022/02/19 04:29:47;;;;;;;7.22;3.27;;;;;;;4.46;70.60;96581.30;1760516;81;20919;-63
2022/02/19 04:32:15;;;;;;;11.65;4.55;;;;;;;4.48;70.62;96592.40;1760440;81;21903;-63
2022/02/19 04:34:46;;;;;;;7.90;3.72;;;;;;;4.47;70.67;96587.66;1755965;81;20908;-65
2022/02/19 04:37:13;;;;;;;10.20;4.50;;;;;;;4.45;70.68;96578.41;1757913;81;21404;-65
2022/02/19 04:39:42;;;;;;;9.08;4.05;;;;;;;4.43;70.77;96577.91;1757679;81;21019;-65
2022/02/19 04:42:10;;;;;;;6.37;3.35;;;;;;;4.40;70.84;96575.81;1756682;81;21419;-61
2022/02/19 04:44:38;;;;;;;9.50;3.95;;;;;;;4.37;70.99;96567.09;1757798;81;21159;-63
2022/02/19 04:47:06;;;;;;;12.43;4.22;;;;;;;4.33;71.19;96579.35;1757765;81;21420;-60
2022/02/19 04:49:33;;;;;;;9.50;4.22;;;;;;;4.28;71.37;96572.25;1758161;81;20880;-66
2022/02/19 04:52:00;;;;;;;11.22;5.62;;;;;;;4.25;71.60;96557.44;1757889;81;21450;-63
2022/02/19 04:54:27;;;;;;;10.38;5.40;;;;;;;4.22;71.79;96547.39;1758109;81;20931;-64
2022/02/19 04:56:53;;;;;;;10.58;4.92;;;;;;;4.19;72.07;96532.87;1757807;81;20956;-64
2022/02/19 04:59:20;;;;;;;13.83;6.40;;;;;;;4.17;72.23;96538.97;1757844;81;20943;-64
2022/02/19 05:01:48;;;;;;;18.75;8.73;;;;;;;4.15;72.34;96539.80;1757704;81;21538;-65
2022/02/19 05:04:17;;;;;;;10.28;4.62;;;;;;;4.13;72.49;96524.19;1757880;81;21436;-60
2022/02/19 05:06:53;;;;;;;11.03;4.83;;;;;;;4.10;72.57;96551.25;1757830;81;20923;-63
2022/02/19 05:09:20;;;;;;;8.33;3.92;;;;;;;4.08;72.69;96557.38;1757893;81;21728;-60
2022/02/19 05:11:48;;;;;;;10.63;3.62;;;;;;;4.06;72.80;96566.14;1756285;78;21030;-60
2022/02/19 05:14:15;;;;;;;9.05;4.20;;;;;;;4.06;72.80;96565.35;1757698;81;20872;-63
2022/02/19 05:16:43;;;;;;;20.43;10.18;;;;;;;4.08;72.86;96571.95;1757974;81;21392;-60
2022/02/19 05:19:12;;;;;;;11.00;5.35;;;;;;;4.09;72.86;96572.74;1757817;81;20879;-65
2022/02/19 05:21:40;;;;;;;7.15;4.17;;;;;;;4.09;72.87;96569.56;1757782;81;21173;-65
2022/02/19 05:24:07;;;;;;;7.95;3.72;;;;;;;4.13;72.79;96566.59;1757880;81;20978;-63
2022/02/19 05:26:37;;;;;;;10.20;4.20;;;;;;;4.16;72.68;96570.54;1757368;81;21371;-63
2022/02/19 05:29:06;;;;;;;8.00;3.80;;;;;;;4.20;72.71;96568.09;1757765;81;20888;-65
2022/02/19 05:31:32;;;;;;;9.10;3.95;;;;;;;4.22;72.62;96578.67;1757687;81;20923;-61
2022/02/19 05:34:04;;;;;;;9.60;4.58;;;;;;;4.24;72.58;96582.38;1755180;80;21876;-61
2022/02/19 05:36:33;;;;;;;9.23;3.80;;;;;;;4.27;72.53;96599.02;1757722;81;20876;-63
2022/02/19 05:39:02;;;;;;;11.18;5.08;;;;;;;4.29;72.42;96600.85;1757669;81;20967;-63
2022/02/19 05:41:30;;;;;;;11.55;6.33;;;;;;;4.33;72.38;96603.20;1757705;81;20936;-60
2022/02/19 05:44:00;;;;;;;11.33;5.03;;;;;;;4.37;72.24;96608.19;1757770;81;20948;-65
2022/02/19 05:46:27;;;;;;;8.48;3.90;;;;;;;4.42;72.19;96604.95;1757641;81;21112;-60
2022/02/19 05:48:54;;;;;;;8.85;5.10;;;;;;;4.47;71.93;96605.42;1757830;81;21380;-65
2022/02/19 05:51:37;;;;;;;57.38;25.25;;;;;;;4.54;71.88;96607.19;1754907;81;21093;-65
2022/02/19 05:54:06;;;;;;;28.27;16.67;;;;;;;4.58;71.59;96597.58;1757538;81;20932;-65
2022/02/19 05:56:35;;;;;;;52.17;25.02;;;;;;;4.61;71.40;96608.95;1758292;81;20888;-66
2022/02/19 05:59:03;;;;;;;13.70;6.90;;;;;;;4.63;71.21;96608.13;1757804;81;20891;-62
2022/02/19 06:01:30;;;;;;;22.52;14.47;;;;;;;4.65;70.85;96613.93;1757954;81;21011;-60
2022/02/19 06:03:58;;;;;;;12.15;5.47;;;;;;;4.68;70.76;96618.14;1757802;81;20959;-61
2022/02/19 06:06:26;;;;;;;12.60;6.58;;;;;;;4.73;70.47;96641.16;1757968;81;21297;-65
2022/02/19 06:08:56;;;;;;;13.65;9.60;;;;;;;4.76;70.32;96640.56;1757917;81;21444;-60
2022/02/19 06:11:25;;;;;;;23.60;15.78;;;;;;;4.80;70.30;96654.86;1757810;81;21456;-61
2022/02/19 06:14:04;;;;;;;21.57;14.55;;;;;;;4.82;70.17;96650.85;1755783;81;21389;-63
2022/02/19 06:16:33;;;;;;;20.12;14.68;;;;;;;4.86;70.01;96668.30;1757457;80;20887;-66
2022/02/19 06:19:02;;;;;;;14.78;6.15;;;;;;;4.88;69.89;96671.45;1756973;81;21019;-63
2022/02/19 06:21:30;;;;;;;86.53;37.45;;;;;;;4.91;69.82;96673.55;1757807;81;20963;-60
2022/02/19 06:23:57;;;;;;;52.48;19.32;;;;;;;4.95;69.79;96679.84;1757883;81;21691;-65
2022/02/19 06:26:25;;;;;;;121.50;41.53;;;;;;;5.00;69.64;96685.63;1757702;81;21443;-60
2022/02/19 06:29:05;;;;;;;129.93;42.00;;;;;;;5.06;69.66;96685.30;1724262;81;21456;-61
2022/02/19 06:31:33;;;;;;;57.90;21.42;;;;;;;5.12;69.48;96678.83;1757768;81;20868;-63
2022/02/19 06:33:59;;;;;;;70.50;22.77;;;;;;;5.16;69.46;96682.48;1758095;81;20955;-63
2022/02/19 06:36:28;;;;;;;88.15;29.72;;;;;;;5.21;69.22;96682.41;1760303;81;21114;-60
2022/02/19 06:38:55;;;;;;;102.80;33.18;;;;;;;5.27;69.09;96697.21;1760127;81;20884;-65
2022/02/19 06:41:23;;;;;;;34.60;12.40;;;;;;;5.31;69.04;96696.88;1759712;81;20840;-65
2022/02/19 06:43:54;;;;;;;60.33;22.55;;;;;;;5.37;68.77;96673.14;1759748;81;20900;-61
2022/02/19 06:46:21;;;;;;;35.55;14.78;;;;;;;5.41;68.74;96707.36;1760262;81;20974;-65
2022/02/19 06:48:48;;;;;;;92.22;37.88;;;;;;;5.46;68.51;96709.92;1760575;81;21686;-63
2022/02/19 06:51:15;;;;;;;68.78;28.90;;;;;;;5.50;68.50;96693.68;1760231;81;21455;-61
2022/02/19 06:53:42;;;;;;;47.23;19.10;;;;;;;5.56;68.37;96736.11;1760395;81;21380;-65
2022/02/19 06:56:09;;;;;;;42.00;18.77;;;;;;;5.63;68.05;96741.84;1760362;81;20943;-61
2022/02/19 06:58:36;;;;;;;52.75;25.70;;;;;;;5.71;67.97;96715.94;1760580;81;20931;-60
2022/02/19 07:01:03;;;;;;;19.23;10.55;;;;;;;5.79;67.32;96711.30;1760266;81;21698;-60
2022/02/19 07:03:32;;;;;;;6.62;2.70;;;;;;;5.96;67.04;96728.84;1760198;81;20900;-61
2022/02/19 07:06:00;;;;;;;10.60;6.50;;;;;;;6.11;65.69;96722.75;1757936;81;20970;-64
2022/02/19 07:08:30;;;;;;;4.35;2.37;;;;;;;6.37;65.87;96729.75;1759779;80;20908;-65
2022/02/19 07:10:58;;;;;;;5.75;2.50;;;;;;;6.57;64.88;96742.66;1760262;81;20970;-68
2022/02/19 07:13:24;;;;;;;8.10;2.37;;;;;;;6.81;63.64;96731.84;1760140;81;21047;-68
2022/02/19 07:15:52;;;;;;;6.05;2.50;;;;;;;7.00;62.89;96753.02;1760107;81;20928;-66
2022/02/19 07:18:21;;;;;;;4.28;2.20;;;;;;;7.15;62.54;96726.10;1759588;81;20963;-61
2022/02/19 07:20:51;;;;;;;7.30;2.80;;;;;;;7.25;61.87;96689.94;1757710;80;21480;-66
2022/02/19 07:23:21;;;;;;;;;;;;;;;7.36;61.34;96727.25;1762838;81;45278;-62
2022/02/19 07:25:47;;;;;;;6.03;2.45;;;;;;;7.47;61.41;96765.89;1760181;81;21066;-64
2022/02/19 07:28:15;;;;;;;5.78;2.50;;;;;;;7.55;61.43;96749.20;1760376;81;20915;-65
2022/02/19 07:30:43;;;;;;;4.35;2.00;;;;;;;7.63;61.13;96769.80;1760234;81;20966;-66
2022/02/19 07:33:11;;;;;;;5.90;2.35;;;;;;;7.71;60.76;96765.09;1760300;81;21443;-66
2022/02/19 07:35:39;;;;;;;5.95;2.40;;;;;;;7.78;60.49;96784.13;1758206;80;20935;-60
2022/02/19 07:38:06;;;;;;;6.17;2.75;;;;;;;7.82;60.03;96750.44;1760217;81;21467;-60
2022/02/19 07:40:33;;;;;;;7.10;2.37;;;;;;;7.85;59.08;96757.84;1760058;81;20927;-61
2022/02/19 07:43:00;;;;;;;8.85;2.55;;;;;;;7.88;59.02;96751.92;1760496;81;20931;-65
2022/02/19 07:45:46;;;;;;;7.20;2.00;;;;;;;7.90;58.61;96768.39;1760456;81;20895;-61
2022/02/19 07:48:33;;;;;;;5.22;1.90;;;;;;;7.91;58.43;96732.66;1760544;81;21603;-65
2022/02/19 07:59:49;;;;;;;4.62;2.42;;;;;;;7.93;57.24;96763.00;1760584;81;20320;-63
2022/02/19 08:02:16;;;;;;;5.47;2.75;;;;;;;7.95;57.36;96746.16;1760089;81;20988;-61
2022/02/19 08:04:43;;;;;;;8.20;3.12;;;;;;;7.96;57.00;96728.51;1760166;81;21059;-65
2022/02/19 08:07:10;;;;;;;12.35;5.10;;;;;;;7.98;57.21;96735.69;1760097;81;21495;-66
2022/02/19 08:09:37;;;;;;;5.87;2.50;;;;;;;7.99;57.09;96733.78;1760186;81;20888;-60
2022/02/19 08:12:05;;;;;;;9.10;2.67;;;;;;;7.98;57.02;96736.23;1760146;81;20856;-62
2022/02/19 08:14:32;;;;;;;5.08;2.30;;;;;;;7.99;56.62;96751.11;1732890;81;20951;-67
2022/02/19 08:16:59;;;;;;;4.17;2.00;;;;;;;8.00;56.86;96748.17;1760080;81;21170;-62
2022/02/19 08:19:28;;;;;;;4.58;2.15;;;;;;;8.02;56.93;96768.65;1760117;81;21344;-62
2022/02/19 08:21:57;;;;;;;3.58;1.90;;;;;;;8.03;57.06;96766.20;1760151;81;20848;-65
2022/02/19 08:24:24;;;;;;;4.03;2.08;;;;;;;8.03;57.21;96767.54;1760598;81;20951;-64
2022/02/19 08:26:50;;;;;;;4.08;2.20;;;;;;;8.04;57.13;96779.80;1760186;81;20931;-64
2022/02/19 08:29:17;;;;;;;5.58;2.42;;;;;;;8.06;57.52;96748.81;1760337;81;21821;-59
2022/02/19 08:31:45;;;;;;;5.47;2.08;;;;;;;8.08;57.29;96769.30;1760205;81;21364;-64
2022/02/19 08:34:12;;;;;;;6.42;2.10;;;;;;;8.11;57.51;96768.70;1760119;81;20892;-65
2022/02/19 08:36:39;;;;;;;5.85;2.15;;;;;;;8.13;57.12;96773.97;1757708;81;20975;-65
2022/02/19 08:39:05;;;;;;;5.83;2.25;;;;;;;8.15;57.19;96752.32;1757778;81;21463;-61
2022/02/19 08:41:33;;;;;;;6.83;2.37;;;;;;;8.17;57.38;96771.50;1757760;81;21112;-63
2022/02/19 08:43:59;;;;;;;4.08;2.10;;;;;;;8.16;57.20;96757.38;1757672;81;20896;-61
2022/02/19 08:46:26;;;;;;;4.87;2.33;;;;;;;8.16;57.37;96780.05;1757726;81;20952;-62
2022/02/19 08:48:52;;;;;;;4.97;2.30;;;;;;;8.19;57.34;96784.78;1757741;81;20891;-65
2022/02/19 08:51:19;;;;;;;5.40;2.15;;;;;;;8.21;57.05;96795.93;1757845;81;21531;-64
2022/02/19 08:53:46;;;;;;;4.05;2.42;;;;;;;8.22;57.08;96787.36;1757776;81;21107;-65
2022/02/19 08:56:13;;;;;;;8.65;2.30;;;;;;;8.22;56.86;96795.36;1757798;81;21431;-65
2022/02/19 08:58:40;;;;;;;3.98;2.20;;;;;;;8.22;56.93;96805.48;1757756;81;20896;-60
2022/02/19 09:01:07;;;;;;;5.42;2.45;;;;;;;8.23;56.46;96785.73;1758078;81;20927;-61
2022/02/19 09:03:34;;;;;;;6.12;2.05;;;;;;;8.24;56.02;96779.30;1757680;81;20943;-61
2022/02/19 09:06:01;;;;;;;3.92;2.05;;;;;;;8.23;56.10;96789.74;1757823;81;21746;-66
2022/02/19 09:08:28;;;;;;;5.30;2.22;;;;;;;8.23;55.80;96769.73;1757672;81;21007;-66
2022/02/19 09:10:54;;;;;;;13.78;2.60;;;;;;;8.23;54.96;96779.61;1757981;81;20879;-63
2022/02/19 09:13:21;;;;;;;4.80;2.27;;;;;;;8.23;54.92;96764.94;1758028;81;21484;-62
2022/02/19 09:15:49;;;;;;;3.40;1.70;;;;;;;8.21;55.02;96763.92;1757798;81;20915;-62
2022/02/19 09:18:16;;;;;;;4.78;2.30;;;;;;;8.21;54.26;96781.26;1757653;81;21069;-67
2022/02/19 09:20:43;;;;;;;5.65;2.25;;;;;;;8.22;53.72;96789.48;1757691;81;20916;-67
2022/02/19 09:23:10;;;;;;;5.20;1.98;;;;;;;8.23;53.78;96776.94;1757647;81;20991;-64
2022/02/19 09:25:37;;;;;;;4.97;1.70;;;;;;;8.23;53.68;96783.08;1757792;81;20972;-65
2022/02/19 09:28:04;;;;;;;4.37;2.10;;;;;;;8.27;53.36;96787.84;1757893;81;20840;-66
2022/02/19 09:30:32;;;;;;;5.33;2.85;;;;;;;8.31;52.82;96802.94;1757877;81;21107;-64
2022/02/19 09:33:01;;;;;;;7.67;4.78;;;;;;;8.34;53.10;96796.20;1757805;81;21017;-66
2022/02/19 09:35:27;;;;;;;10.05;5.15;;;;;;;8.37;52.22;96820.38;1758705;81;20927;-62
2022/02/19 09:37:54;;;;;;;9.25;5.60;;;;;;;8.41;52.46;96805.90;1760311;81;20904;-66
2022/02/19 09:40:21;;;;;;;9.78;5.20;;;;;;;8.43;52.16;96818.39;1760434;81;20943;-66
2022/02/19 09:42:49;;;;;;;8.10;5.10;;;;;;;8.45;52.16;96822.87;1760335;81;21062;-61
2022/02/19 09:45:17;;;;;;;9.33;5.37;;;;;;;8.47;52.33;96816.67;1760425;81;21292;-65
2022/02/19 09:47:43;;;;;;;9.23;4.55;;;;;;;8.48;51.84;96834.28;1760391;81;20848;-66
2022/02/19 09:50:10;;;;;;;7.70;4.33;;;;;;;8.49;50.25;96826.50;1760283;81;20907;-62
2022/02/19 09:52:39;;;;;;;6.65;3.87;;;;;;;8.49;51.05;96831.84;1760303;81;20942;-65
2022/02/19 09:55:07;;;;;;;6.35;4.10;;;;;;;8.51;50.86;96836.32;1760402;81;21738;-66
2022/02/19 09:57:34;;;;;;;8.95;3.95;;;;;;;8.51;50.58;96835.78;1760222;81;20972;-65
2022/02/19 10:00:01;;;;;;;7.37;3.45;;;;;;;8.51;49.69;96846.99;1760400;81;21495;-61
2022/02/19 10:02:31;;;;;;;6.53;3.25;;;;;;;8.50;49.50;96850.77;1760241;81;20923;-63
2022/02/19 10:05:22;;;;;;;4.62;2.92;;;;;;;8.49;49.73;96845.17;1759681;80;21022;-65
2022/02/19 10:08:04;;;;;;;4.97;2.45;;;;;;;8.46;49.89;96861.25;1760307;81;21113;-63
2022/02/19 10:10:32;;;;;;;5.95;2.08;;;;;;;8.43;49.45;96862.42;1746556;81;21511;-66
2022/02/19 10:12:59;;;;;;;5.60;1.87;;;;;;;8.46;49.63;96855.91;1760186;81;21022;-65
2022/02/19 10:15:47;;;;;;;4.20;1.80;;;;;;;8.52;48.54;96856.05;1760485;81;21407;-65
2022/02/19 10:18:29;;;;;;;3.98;1.72;;;;;;;8.64;48.32;96867.51;1760262;81;20876;-66
2022/02/19 10:21:20;;;;;;;3.10;1.47;;;;;;;8.82;47.67;96869.18;1741283;80;21276;-65
2022/02/19 10:23:56;;;;;;;4.08;1.40;;;;;;;9.02;45.48;96873.23;1760141;81;20923;-64
2022/02/19 10:26:30;;;;;;;3.47;1.80;;;;;;;9.22;45.63;96862.78;1760546;81;20929;-63
2022/02/19 10:29:07;;;;;;;2.65;1.22;;;;;;;9.40;45.50;96867.09;1760444;81;20908;-65
2022/02/19 10:31:34;;;;;;;3.98;1.50;;;;;;;9.56;43.61;96862.89;1760441;81;20883;-60
2022/02/19 10:34:08;;;;;;;3.33;1.55;;;;;;;9.70;42.73;96871.36;1760166;81;21093;-61
2022/02/19 10:39:32;;;;;;;3.58;1.40;;;;;;;9.77;39.37;96887.73;1757811;81;21058;-67
2022/02/19 10:42:05;;;;;;;3.90;1.62;;;;;;;9.69;40.88;96871.91;1757715;81;21519;-64
2022/02/19 10:44:34;;;;;;;2.95;1.50;;;;;;;9.55;40.10;96880.05;1759916;80;20986;-64
2022/02/19 10:47:23;;;;;;;2.85;1.50;;;;;;;9.54;40.42;96865.64;1768000;80;21731;-61
2022/02/19 10:50:12;;;;;;;3.25;1.55;;;;;;;9.64;41.63;96874.17;1789691;80;20912;-60
2022/02/19 10:52:42;;;;;;;2.62;1.25;;;;;;;9.83;41.14;96861.87;1758527;80;21007;-65
2022/02/19 10:55:14;;;;;;;3.25;1.20;;;;;;;10.03;40.24;96863.16;1757800;81;21534;-61
2022/02/19 10:57:42;;;;;;;4.80;1.40;;;;;;;10.04;39.02;96884.24;1757841;81;20943;-61
2022/02/19 11:00:16;;;;;;;2.75;1.47;;;;;;;9.94;37.82;96877.08;1757778;81;21766;-64
2022/02/19 11:02:44;;;;;;;3.25;1.52;;;;;;;9.82;37.61;96899.63;1760993;80;20963;-65
2022/02/19 11:05:11;;;;;;;3.10;1.50;;;;;;;9.80;38.64;96893.81;1789727;80;20923;-64
2022/02/19 11:07:40;;;;;;;2.30;1.45;;;;;;;9.81;37.70;96904.19;1789772;80;20955;-63
2022/02/19 11:10:10;;;;;;;2.02;1.10;;;;;;;9.79;37.32;96909.60;1789861;80;20859;-66
2022/02/19 11:12:38;;;;;;;5.12;1.30;;;;;;;9.75;37.36;96918.78;1789848;80;21710;-60
2022/02/19 11:15:07;;;;;;;3.02;1.00;;;;;;;9.68;37.47;96912.33;1789763;80;20824;-63
2022/02/19 11:17:36;;;;;;;3.27;1.20;;;;;;;9.54;37.68;96915.88;1789717;80;20956;-61
2022/02/19 11:20:09;;;;;;;2.33;1.25;;;;;;;9.42;37.82;96933.05;1789680;80;20947;-61
2022/02/19 11:22:38;;;;;;;4.90;1.33;;;;;;;9.32;38.15;96946.70;1790040;80;21324;-62
2022/02/19 11:25:10;;;;;;;6.12;1.30;;;;;;;9.19;38.63;96920.84;1789784;80;21113;-64
2022/02/19 11:27:58;;;;;;;3.77;1.20;;;;;;;9.10;38.93;96924.02;1790176;80;20861;-63
2022/02/19 11:30:28;;;;;;;3.22;1.35;;;;;;;9.01;38.77;96927.19;1789813;80;20915;-61
2022/02/19 11:32:55;;;;;;;4.58;1.30;;;;;;;9.05;39.26;96922.80;1790029;80;20930;-62
2022/02/19 11:35:36;;;;;;;2.95;1.15;;;;;;;9.10;38.71;96924.02;1789601;80;20975;-61
2022/02/19 11:38:27;;;;;;;3.35;1.70;;;;;;;9.20;38.34;96926.98;1759875;80;21714;-62
2022/02/19 11:40:57;;;;;;;4.15;1.25;;;;;;;9.31;37.13;96925.06;1764094;80;20849;-63
2022/02/19 11:43:41;;;;;;;2.77;1.12;;;;;;;9.45;38.15;96922.29;1757948;81;20927;-60
2022/02/19 11:46:15;;;;;;;3.20;1.37;;;;;;;9.63;38.04;96932.74;1756176;81;20900;-61
2022/02/19 11:48:46;;;;;;;3.62;1.27;;;;;;;9.84;36.22;96933.53;1742203;81;20951;-65
2022/02/19 11:51:28;;;;;;;1.70;1.10;;;;;;;9.95;36.21;96928.13;1757781;81;21128;-62
2022/02/19 11:54:10;;;;;;;2.37;1.10;;;;;;;10.04;36.23;96944.98;1757716;81;20849;-65
2022/02/19 11:56:41;;;;;;;3.62;1.15;;;;;;;10.14;36.35;96938.04;1757695;81;20911;-64
2022/02/19 11:59:10;;;;;;;3.58;1.40;;;;;;;10.18;35.26;96937.09;1757420;80;20943;-66